createdAt,value
2017-04-20T00:00:22.330Z,0
2017-04-20T00:01:23.243Z,0
2017-04-20T00:02:22.894Z,0
2017-04-20T00:03:23.250Z,0
2017-04-20T00:04:22.531Z,0
2017-04-20T00:05:29.522Z,0
2017-04-20T00:06:22.814Z,0
2017-04-20T00:07:22.797Z,0
2017-04-20T00:08:22.853Z,0
2017-04-20T00:09:22.115Z,0
2017-04-20T00:10:22.403Z,0
2017-04-20T00:11:23.014Z,0
2017-04-20T00:12:22.648Z,0
2017-04-20T00:13:22.023Z,0
2017-04-20T00:14:22.380Z,0
2017-04-20T00:15:42.102Z,0
2017-04-20T00:16:22.253Z,0
2017-04-20T00:17:22.240Z,0
2017-04-20T00:18:22.502Z,0
2017-04-20T00:19:22.602Z,0
2017-04-20T00:20:22.464Z,0
2017-04-20T00:21:22.143Z,0
2017-04-20T00:22:22.418Z,0
2017-04-20T00:23:22.091Z,0
2017-04-20T00:24:22.694Z,0
2017-04-20T00:25:22.059Z,0
2017-04-20T00:26:21.731Z,0
2017-04-20T00:27:21.998Z,0
2017-04-20T00:28:21.979Z,0
2017-04-20T00:29:21.974Z,0
2017-04-20T00:30:22.222Z,0
2017-04-20T00:31:21.903Z,0
2017-04-20T00:32:21.882Z,0
2017-04-20T00:33:21.862Z,0
2017-04-20T00:34:22.141Z,0
2017-04-20T00:35:21.783Z,0
2017-04-20T00:36:21.818Z,0
2017-04-20T00:37:21.769Z,0
2017-04-20T00:38:22.022Z,0
2017-04-20T00:39:22.132Z,0
2017-04-20T00:40:21.982Z,0
2017-04-20T00:41:21.952Z,0
2017-04-20T00:42:22.244Z,0
2017-04-20T00:43:21.918Z,0
2017-04-20T00:44:22.204Z,0
2017-04-20T00:45:22.180Z,0
2017-04-20T00:46:21.609Z,0
2017-04-20T00:47:21.818Z,0
2017-04-20T00:48:21.799Z,0
2017-04-20T00:49:22.102Z,0
2017-04-20T00:50:22.050Z,0
2017-04-20T00:51:21.808Z,0
2017-04-20T00:52:21.687Z,0
2017-04-20T00:53:21.985Z,0
2017-04-20T00:54:21.953Z,0
2017-04-20T00:55:21.929Z,0
2017-04-20T00:56:21.926Z,0
2017-04-20T00:57:22.048Z,0
2017-04-20T00:58:21.859Z,0
2017-04-20T00:59:21.533Z,0
2017-04-20T01:00:21.507Z,0
2017-04-20T01:01:21.875Z,0
2017-04-20T01:02:21.155Z,0
2017-04-20T01:03:21.430Z,0
2017-04-20T01:04:21.700Z,0
2017-04-20T01:05:21.687Z,0
2017-04-20T01:06:21.671Z,0
2017-04-20T01:07:21.637Z,0
2017-04-20T01:08:21.312Z,0
2017-04-20T01:09:21.272Z,0
2017-04-20T01:10:20.965Z,0
2017-04-20T01:11:21.549Z,0
2017-04-20T01:12:21.225Z,0
2017-04-20T01:13:20.628Z,0
2017-04-20T01:14:21.181Z,0
2017-04-20T01:15:21.450Z,0
2017-04-20T01:16:21.494Z,0
2017-04-20T01:17:21.097Z,0
2017-04-20T01:18:21.448Z,0
2017-04-20T01:19:20.440Z,0
2017-04-20T01:20:20.422Z,0
2017-04-20T01:21:20.682Z,0
2017-04-20T01:22:21.382Z,0
2017-04-20T01:23:20.680Z,0
2017-04-20T01:24:21.116Z,0
2017-04-20T01:25:21.213Z,0
2017-04-20T01:26:20.873Z,0
2017-04-20T01:27:20.522Z,0
2017-04-20T01:28:20.833Z,0
2017-04-20T01:29:20.791Z,0
2017-04-20T01:30:20.461Z,0
2017-04-20T01:31:20.431Z,0
2017-04-20T01:32:20.722Z,0
2017-04-20T01:34:43.760Z,0
2017-04-20T01:34:53.378Z,0
2017-04-20T01:35:53.080Z,0
2017-04-20T01:36:53.014Z,0
2017-04-20T01:37:53.021Z,0
2017-04-20T01:38:53.682Z,0
2017-04-20T01:39:52.957Z,0
2017-04-20T01:40:53.221Z,0
2017-04-20T01:41:52.886Z,0
2017-04-20T01:42:53.240Z,0
2017-04-20T01:43:53.152Z,0
2017-04-20T01:44:53.126Z,0
2017-04-20T01:45:53.124Z,0
2017-04-20T01:46:53.191Z,0
2017-04-20T01:47:53.045Z,0
2017-04-20T01:48:53.040Z,0
2017-04-20T01:49:52.997Z,0
2017-04-20T01:50:53.033Z,0
2017-04-20T01:51:52.945Z,0
2017-04-20T01:52:52.625Z,0
2017-04-20T01:53:53.203Z,0
2017-04-20T01:54:53.266Z,0
2017-04-20T01:55:52.839Z,0
2017-04-20T01:56:52.969Z,0
2017-04-20T01:57:52.514Z,0
2017-04-20T01:58:52.488Z,0
2017-04-20T01:59:53.139Z,0
2017-04-20T02:00:52.409Z,0
2017-04-20T02:01:52.707Z,0
2017-04-20T02:02:53.146Z,0
2017-04-20T02:03:52.973Z,0
2017-04-20T02:04:53.139Z,0
2017-04-20T02:05:52.012Z,0
2017-04-20T02:06:51.962Z,0
2017-04-20T02:07:52.613Z,0
2017-04-20T02:08:52.519Z,0
2017-04-20T02:09:52.570Z,0
2017-04-20T02:10:52.472Z,0
2017-04-20T02:11:52.142Z,0
2017-04-20T02:12:52.460Z,0
2017-04-20T02:13:52.412Z,0
2017-04-20T02:14:52.382Z,0
2017-04-20T02:15:52.417Z,0
2017-04-20T02:16:52.032Z,0
2017-04-20T02:17:52.313Z,0
2017-04-20T02:18:51.687Z,0
2017-04-20T02:19:52.582Z,0
2017-04-20T02:20:52.552Z,0
2017-04-20T02:21:52.524Z,0
2017-04-20T02:22:51.975Z,0
2017-04-20T02:23:52.492Z,0
2017-04-20T02:24:52.140Z,0
2017-04-20T02:25:51.510Z,0
2017-04-20T02:26:51.484Z,0
2017-04-20T02:27:52.069Z,0
2017-04-20T02:28:52.120Z,0
2017-04-20T02:29:52.033Z,0
2017-04-20T02:30:51.981Z,0
2017-04-20T02:31:51.353Z,0
2017-04-20T02:32:51.935Z,0
2017-04-20T02:33:51.915Z,0
2017-04-20T02:34:51.593Z,0
2017-04-20T02:35:51.044Z,0
2017-04-20T02:36:52.131Z,0
2017-04-20T02:37:51.812Z,0
2017-04-20T02:38:51.242Z,0
2017-04-20T02:39:51.756Z,0
2017-04-20T02:40:51.492Z,0
2017-04-20T02:41:52.023Z,0
2017-04-20T02:42:51.443Z,0
2017-04-20T02:43:51.982Z,0
2017-04-20T02:44:51.962Z,0
2017-04-20T02:45:51.920Z,0
2017-04-20T02:46:51.911Z,0
2017-04-20T02:47:51.893Z,0
2017-04-20T02:48:50.960Z,0
2017-04-20T02:49:51.549Z,0
2017-04-20T02:50:50.941Z,0
2017-04-20T02:51:51.472Z,0
2017-04-20T02:52:51.750Z,0
2017-04-20T02:53:51.729Z,0
2017-04-20T02:54:51.804Z,0
2017-04-20T02:55:51.058Z,0
2017-04-20T02:56:51.071Z,0
2017-04-20T02:57:51.043Z,0
2017-04-20T02:58:50.984Z,0
2017-04-20T02:59:51.594Z,0
2017-04-20T03:00:51.025Z,0
2017-04-20T03:01:50.601Z,0
2017-04-20T03:02:51.505Z,0
2017-04-20T03:03:50.866Z,0
2017-04-20T03:04:51.131Z,0
2017-04-20T03:05:51.124Z,0
2017-04-20T03:06:50.483Z,0
2017-04-20T03:07:50.464Z,0
2017-04-20T03:08:51.052Z,0
2017-04-20T03:09:51.029Z,0
2017-04-20T03:10:50.992Z,0
2017-04-20T03:11:50.998Z,0
2017-04-20T03:12:50.653Z,0
2017-04-20T03:13:50.362Z,0
2017-04-20T03:14:51.252Z,0
2017-04-20T03:15:51.255Z,0
2017-04-20T03:16:50.837Z,0
2017-04-20T03:17:50.891Z,0
2017-04-20T03:18:50.873Z,0
2017-04-20T03:19:50.469Z,0
2017-04-20T03:20:50.807Z,0
2017-04-20T03:21:51.101Z,0
2017-04-20T03:22:50.081Z,0
2017-04-20T03:23:50.680Z,0
2017-04-20T03:24:50.341Z,0
2017-04-20T03:25:50.643Z,0
2017-04-20T03:26:50.298Z,0
2017-04-20T03:27:50.574Z,0
2017-04-20T03:28:50.554Z,0
2017-04-20T03:29:50.509Z,0
2017-04-20T03:30:50.513Z,0
2017-04-20T03:31:50.483Z,0
2017-04-20T03:32:49.822Z,0
2017-04-20T03:33:50.725Z,0
2017-04-20T03:34:50.461Z,0
2017-04-20T03:35:50.664Z,0
2017-04-20T03:36:49.719Z,0
2017-04-20T03:37:50.326Z,0
2017-04-20T03:38:50.355Z,0
2017-04-20T03:39:50.285Z,0
2017-04-20T03:40:50.292Z,0
2017-04-20T03:41:50.532Z,0
2017-04-20T03:42:50.258Z,0
2017-04-20T03:43:49.862Z,0
2017-04-20T03:44:49.821Z,0
2017-04-20T03:45:49.877Z,0
2017-04-20T03:46:50.102Z,0
2017-04-20T03:47:50.072Z,0
2017-04-20T03:48:49.416Z,0
2017-04-20T03:49:50.314Z,0
2017-04-20T03:50:49.377Z,0
2017-04-20T03:51:49.662Z,0
2017-04-20T03:52:49.944Z,0
2017-04-20T03:53:49.593Z,0
2017-04-20T03:54:50.202Z,0
2017-04-20T03:55:49.563Z,0
2017-04-20T03:56:49.838Z,0
2017-04-20T03:57:49.216Z,0
2017-04-20T03:58:49.903Z,0
2017-04-20T03:59:49.762Z,0
2017-04-20T04:00:49.424Z,0
2017-04-20T04:01:49.409Z,0
2017-04-20T04:02:49.694Z,0
2017-04-20T04:03:49.972Z,0
2017-04-20T04:04:49.570Z,0
2017-04-20T04:05:49.734Z,0
2017-04-20T04:06:49.023Z,0
2017-04-20T04:07:49.606Z,0
2017-04-20T04:08:49.593Z,0
2017-04-20T04:09:48.898Z,0
2017-04-20T04:10:49.482Z,0
2017-04-20T04:11:49.154Z,0
2017-04-20T04:12:49.435Z,0
2017-04-20T04:13:49.192Z,0
2017-04-20T04:14:49.713Z,0
2017-04-20T04:15:49.679Z,0
2017-04-20T04:16:49.012Z,0
2017-04-20T04:17:49.672Z,0
2017-04-20T04:18:48.990Z,0
2017-04-20T04:19:48.946Z,0
2017-04-20T04:20:49.252Z,0
2017-04-20T04:21:49.505Z,0
2017-04-20T04:22:49.508Z,0
2017-04-20T04:23:49.172Z,0
2017-04-20T04:24:49.122Z,0
2017-04-20T04:25:49.452Z,5
2017-04-20T04:26:49.183Z,5
2017-04-20T04:27:49.046Z,5
2017-04-20T04:28:48.720Z,5
2017-04-20T04:29:49.380Z,5
2017-04-20T04:30:49.073Z,5
2017-04-20T04:31:48.944Z,5
2017-04-20T04:32:49.314Z,5
2017-04-20T04:33:49.193Z,5
2017-04-20T04:34:48.307Z,10
2017-04-20T04:35:48.548Z,10
2017-04-20T04:36:48.213Z,10
2017-04-20T04:37:48.825Z,10
2017-04-20T04:38:48.805Z,10
2017-04-20T04:39:48.430Z,10
2017-04-20T04:40:49.067Z,15
2017-04-20T04:41:48.393Z,15
2017-04-20T04:42:48.673Z,15
2017-04-20T04:43:48.712Z,15
2017-04-20T04:44:48.614Z,15
2017-04-20T04:45:48.289Z,15
2017-04-20T04:46:48.262Z,15
2017-04-20T04:47:48.234Z,20
2017-04-20T04:48:48.512Z,20
2017-04-20T04:49:48.183Z,20
2017-04-20T04:50:48.762Z,20
2017-04-20T04:51:48.148Z,20
2017-04-20T04:52:48.715Z,20
2017-04-20T04:53:48.087Z,20
2017-04-20T04:54:48.420Z,25
2017-04-20T04:55:48.441Z,25
2017-04-20T04:56:48.619Z,25
2017-04-20T04:57:48.577Z,25
2017-04-20T04:58:48.055Z,25
2017-04-20T04:59:48.552Z,25
2017-04-20T05:00:48.213Z,30
2017-04-20T05:01:47.900Z,30
2017-04-20T05:02:48.497Z,30
2017-04-20T05:03:48.444Z,30
2017-04-20T05:04:47.660Z,30
2017-04-20T05:05:48.099Z,35
2017-04-20T05:06:47.525Z,35
2017-04-20T05:07:48.026Z,35
2017-04-20T05:08:48.117Z,40
2017-04-20T05:09:47.691Z,40
2017-04-20T05:10:48.283Z,40
2017-04-20T05:11:47.339Z,40
2017-04-20T05:12:47.594Z,45
2017-04-20T05:13:48.196Z,45
2017-04-20T05:14:48.181Z,45
2017-04-20T05:15:47.853Z,45
2017-04-20T05:16:47.531Z,45
2017-04-20T05:17:47.780Z,50
2017-04-20T05:18:48.053Z,50
2017-04-20T05:19:47.430Z,50
2017-04-20T05:20:47.102Z,50
2017-04-20T05:21:47.461Z,50
2017-04-20T05:22:47.432Z,55
2017-04-20T05:23:47.943Z,55
2017-04-20T05:24:47.653Z,55
2017-04-20T05:25:47.282Z,55
2017-04-20T05:26:47.545Z,55
2017-04-20T05:27:47.855Z,55
2017-04-20T05:28:47.808Z,60
2017-04-20T05:29:47.482Z,60
2017-04-20T05:30:47.816Z,60
2017-04-20T05:31:47.125Z,65
2017-04-20T05:32:47.744Z,65
2017-04-20T05:33:47.745Z,65
2017-04-20T05:34:47.036Z,65
2017-04-20T05:35:47.026Z,70
2017-04-20T05:36:47.003Z,70
2017-04-20T05:37:47.280Z,70
2017-04-20T05:38:47.045Z,70
2017-04-20T05:39:47.222Z,75
2017-04-20T05:40:47.189Z,75
2017-04-20T05:41:47.182Z,75
2017-04-20T05:42:47.513Z,80
2017-04-20T05:43:47.504Z,80
2017-04-20T05:44:47.102Z,80
2017-04-20T05:45:47.085Z,80
2017-04-20T05:46:47.043Z,80
2017-04-20T05:47:47.077Z,80
2017-04-20T05:48:46.382Z,80
2017-04-20T05:49:47.012Z,85
2017-04-20T05:50:47.013Z,85
2017-04-20T05:51:46.322Z,85
2017-04-20T05:52:46.591Z,90
2017-04-20T05:53:46.683Z,90
2017-04-20T05:54:47.252Z,90
2017-04-20T05:55:46.832Z,95
2017-04-20T05:56:46.501Z,95
2017-04-20T05:57:46.481Z,95
2017-04-20T05:58:47.064Z,95
2017-04-20T05:59:46.733Z,100
2017-04-20T06:00:47.150Z,100
2017-04-20T06:01:46.712Z,100
2017-04-20T06:02:46.032Z,100
2017-04-20T06:03:46.454Z,100
2017-04-20T06:04:46.296Z,100
2017-04-20T06:05:46.655Z,105
2017-04-20T06:06:46.274Z,105
2017-04-20T06:07:46.859Z,110
2017-04-20T06:08:46.554Z,110
2017-04-20T06:09:46.793Z,115
2017-04-20T06:10:45.844Z,115
2017-04-20T06:11:46.452Z,120
2017-04-20T06:12:46.100Z,120
2017-04-20T06:13:46.749Z,120
2017-04-20T06:14:46.684Z,120
2017-04-20T06:15:46.038Z,120
2017-04-20T06:16:46.312Z,120
2017-04-20T06:17:46.300Z,125
2017-04-20T06:18:45.974Z,125
2017-04-20T06:19:46.231Z,130
2017-04-20T06:20:46.235Z,135
2017-04-20T06:21:46.013Z,135
2017-04-20T06:22:45.873Z,135
2017-04-20T06:23:46.163Z,135
2017-04-20T06:24:45.855Z,135
2017-04-20T06:25:46.151Z,135
2017-04-20T06:26:46.092Z,135
2017-04-20T06:27:46.042Z,140
2017-04-20T06:28:45.774Z,140
2017-04-20T06:29:46.044Z,140
2017-04-20T06:30:46.013Z,140
2017-04-20T06:31:46.312Z,145
2017-04-20T06:32:45.345Z,145
2017-04-20T06:33:46.239Z,145
2017-04-20T06:34:45.893Z,150
2017-04-20T06:35:45.914Z,145
2017-04-20T06:36:45.856Z,150
2017-04-20T06:37:45.851Z,150
2017-04-20T06:38:46.121Z,150
2017-04-20T06:39:45.783Z,150
2017-04-20T06:40:45.754Z,150
2017-04-20T06:41:46.031Z,155
2017-04-20T06:42:45.717Z,160
2017-04-20T06:43:45.373Z,160
2017-04-20T06:44:45.653Z,165
2017-04-20T06:45:45.032Z,165
2017-04-20T06:46:45.924Z,165
2017-04-20T06:47:45.917Z,165
2017-04-20T06:48:45.892Z,180
2017-04-20T06:49:45.853Z,180
2017-04-20T06:50:45.552Z,185
2017-04-20T06:51:45.526Z,195
2017-04-20T06:52:45.505Z,205
2017-04-20T06:53:45.770Z,210
2017-04-20T06:54:45.421Z,215
2017-04-20T06:55:45.444Z,210
2017-04-20T06:56:45.703Z,225
2017-04-20T06:57:45.364Z,270
2017-04-20T06:58:45.669Z,415
2017-04-20T06:59:45.305Z,535
2017-04-20T07:00:45.293Z,760
2017-04-20T07:01:45.273Z,880
2017-04-20T07:02:45.242Z,865
2017-04-20T07:03:44.966Z,885
2017-04-20T07:04:45.512Z,735
2017-04-20T07:05:44.927Z,845
2017-04-20T07:06:45.150Z,1010
2017-04-20T07:07:45.160Z,1130
2017-04-20T07:08:45.152Z,1155
2017-04-20T07:09:45.121Z,1005
2017-04-20T07:10:45.408Z,1130
2017-04-20T07:11:44.818Z,1150
2017-04-20T07:12:44.745Z,1200
2017-04-20T07:13:44.425Z,1275
2017-04-20T07:14:45.363Z,1265
2017-04-20T07:15:45.298Z,1060
2017-04-20T07:16:44.993Z,1055
2017-04-20T07:17:44.982Z,1030
2017-04-20T07:18:44.963Z,1130
2017-04-20T07:19:44.692Z,1060
2017-04-20T07:20:44.935Z,865
2017-04-20T07:21:44.617Z,670
2017-04-20T07:22:45.224Z,520
2017-04-20T07:23:44.873Z,430
2017-04-20T07:24:44.863Z,340
2017-04-20T07:25:44.764Z,320
2017-04-20T07:26:44.841Z,310
2017-04-20T07:27:45.142Z,305
2017-04-20T07:28:44.204Z,310
2017-04-20T07:29:44.846Z,330
2017-04-20T07:30:44.804Z,430
2017-04-20T07:31:45.072Z,690
2017-04-20T07:32:44.463Z,1015
2017-04-20T07:33:44.874Z,1215
2017-04-20T07:34:45.038Z,1265
2017-04-20T07:35:44.699Z,1275
2017-04-20T07:36:44.720Z,1130
2017-04-20T07:37:44.079Z,1220
2017-04-20T07:38:44.671Z,1340
2017-04-20T07:39:44.652Z,1380
2017-04-20T07:40:44.764Z,1225
2017-04-20T07:41:44.043Z,1345
2017-04-20T07:42:45.142Z,1350
2017-04-20T07:43:44.612Z,1365
2017-04-20T07:44:44.606Z,1260
2017-04-20T07:45:44.914Z,1235
2017-04-20T07:46:44.592Z,1160
2017-04-20T07:47:44.582Z,1230
2017-04-20T07:48:44.852Z,1245
2017-04-20T07:49:44.882Z,1185
2017-04-20T07:50:44.843Z,1085
2017-04-20T07:51:44.240Z,1150
2017-04-20T07:52:44.222Z,1245
2017-04-20T07:53:44.828Z,1185
2017-04-20T07:54:44.844Z,1255
2017-04-20T07:55:44.209Z,1310
2017-04-20T07:56:44.836Z,1350
2017-04-20T07:57:44.783Z,1425
2017-04-20T07:58:44.153Z,1430
2017-04-20T07:59:44.466Z,1325
2017-04-20T08:00:44.470Z,1305
2017-04-20T08:01:44.463Z,1340
2017-04-20T08:02:44.430Z,1200
2017-04-20T08:03:44.481Z,1325
2017-04-20T08:04:44.437Z,1390
2017-04-20T08:05:43.903Z,1270
2017-04-20T08:06:44.165Z,1415
2017-04-20T08:07:44.865Z,1395
2017-04-20T08:08:44.708Z,1350
2017-04-20T08:09:43.767Z,1300
2017-04-20T08:10:43.823Z,1280
2017-04-20T08:11:44.052Z,1320
2017-04-20T08:12:44.667Z,1220
2017-04-20T08:13:44.339Z,1235
2017-04-20T08:14:44.352Z,1245
2017-04-20T08:15:44.368Z,920
2017-04-20T08:16:44.024Z,1320
2017-04-20T08:17:44.292Z,1195
2017-04-20T08:18:44.308Z,830
2017-04-20T08:19:44.320Z,335
2017-04-20T08:20:43.695Z,345
2017-04-20T08:21:44.582Z,1045
2017-04-20T08:22:43.962Z,1160
2017-04-20T08:23:44.272Z,1120
2017-04-20T08:24:43.626Z,1090
2017-04-20T08:25:44.246Z,1125
2017-04-20T08:26:44.261Z,1235
2017-04-20T08:27:44.585Z,1155
2017-04-20T08:28:44.217Z,1020
2017-04-20T08:29:43.899Z,1240
2017-04-20T08:30:44.525Z,1250
2017-04-20T08:31:43.899Z,1175
2017-04-20T08:32:43.903Z,1105
2017-04-20T08:33:44.189Z,1125
2017-04-20T08:34:44.491Z,1150
2017-04-20T08:35:44.506Z,1200
2017-04-20T08:36:44.463Z,1225
2017-04-20T08:37:43.530Z,1220
2017-04-20T08:38:44.260Z,1155
2017-04-20T08:39:43.822Z,1245
2017-04-20T08:40:43.516Z,1260
2017-04-20T08:41:44.571Z,1260
2017-04-20T08:42:43.802Z,1205
2017-04-20T08:43:43.555Z,1205
2017-04-20T08:44:44.122Z,1195
2017-04-20T08:45:43.783Z,1215
2017-04-20T08:46:44.097Z,1240
2017-04-20T08:47:44.387Z,1260
2017-04-20T08:48:44.122Z,1300
2017-04-20T08:49:43.507Z,1290
2017-04-20T08:50:44.345Z,1225
2017-04-20T08:51:44.060Z,1135
2017-04-20T08:52:43.891Z,935
2017-04-20T08:53:43.713Z,1110
2017-04-20T08:54:44.063Z,1240
2017-04-20T08:55:44.383Z,1275
2017-04-20T08:56:44.061Z,1315
2017-04-20T08:57:43.463Z,1315
2017-04-20T08:58:44.212Z,1285
2017-04-20T08:59:43.725Z,1270
2017-04-20T09:00:43.994Z,1220
2017-04-20T09:01:43.712Z,1195
2017-04-20T09:02:43.944Z,1255
2017-04-20T09:03:44.291Z,1345
2017-04-20T09:04:43.992Z,1325
2017-04-20T09:05:43.628Z,1245
2017-04-20T09:06:43.941Z,1305
2017-04-20T09:07:44.230Z,1345
2017-04-20T09:08:44.249Z,1320
2017-04-20T09:09:43.992Z,1315
2017-04-20T09:10:44.211Z,1290
2017-04-20T09:11:44.222Z,1260
2017-04-20T09:12:43.647Z,1220
2017-04-20T09:13:43.902Z,1315
2017-04-20T09:14:43.973Z,1375
2017-04-20T09:15:43.924Z,1310
2017-04-20T09:16:43.603Z,1225
2017-04-20T09:17:43.891Z,1325
2017-04-20T09:18:43.259Z,1330
2017-04-20T09:19:43.840Z,1210
2017-04-20T09:20:44.193Z,1255
2017-04-20T09:21:43.850Z,1060
2017-04-20T09:22:44.134Z,1130
2017-04-20T09:23:43.723Z,1235
2017-04-20T09:24:43.944Z,1245
2017-04-20T09:25:43.506Z,1120
2017-04-20T09:26:44.120Z,1180
2017-04-20T09:27:43.862Z,1295
2017-04-20T09:28:43.802Z,1170
2017-04-20T09:29:43.782Z,1100
2017-04-20T09:30:43.881Z,1125
2017-04-20T09:31:44.492Z,1090
2017-04-20T09:32:43.578Z,1130
2017-04-20T09:33:43.436Z,1095
2017-04-20T09:34:43.472Z,1025
2017-04-20T09:35:43.469Z,1045
2017-04-20T09:36:43.749Z,1070
2017-04-20T09:37:43.755Z,1085
2017-04-20T09:38:43.713Z,1055
2017-04-20T09:39:44.024Z,1075
2017-04-20T09:40:43.872Z,1095
2017-04-20T09:41:43.411Z,1110
2017-04-20T09:42:43.435Z,1180
2017-04-20T09:43:43.688Z,1180
2017-04-20T09:44:43.787Z,1215
2017-04-20T09:45:43.789Z,1095
2017-04-20T09:46:43.674Z,1065
2017-04-20T09:47:43.976Z,1070
2017-04-20T09:48:43.680Z,1105
2017-04-20T09:49:43.703Z,1085
2017-04-20T09:50:43.943Z,1100
2017-04-20T09:51:43.933Z,1125
2017-04-20T09:52:43.647Z,1065
2017-04-20T09:53:43.374Z,1035
2017-04-20T09:54:43.612Z,1020
2017-04-20T09:55:43.913Z,1015
2017-04-20T09:56:43.882Z,1055
2017-04-20T09:57:43.990Z,1020
2017-04-20T09:58:43.268Z,1035
2017-04-20T09:59:43.987Z,1005
2017-04-20T10:00:43.612Z,995
2017-04-20T10:01:43.998Z,850
2017-04-20T10:02:43.860Z,960
2017-04-20T10:03:43.947Z,925
2017-04-20T10:04:43.510Z,980
2017-04-20T10:05:43.518Z,945
2017-04-20T10:06:43.239Z,860
2017-04-20T10:07:43.501Z,940
2017-04-20T10:08:43.812Z,945
2017-04-20T10:09:42.890Z,795
2017-04-20T10:10:43.815Z,600
2017-04-20T10:11:43.152Z,500
2017-04-20T10:12:43.817Z,490
2017-04-20T10:13:43.366Z,485
2017-04-20T10:14:43.441Z,490
2017-04-20T10:15:43.441Z,465
2017-04-20T10:16:43.727Z,475
2017-04-20T10:17:43.443Z,485
2017-04-20T10:18:43.471Z,465
2017-04-20T10:19:43.692Z,460
2017-04-20T10:20:43.363Z,455
2017-04-20T10:21:43.362Z,460
2017-04-20T10:22:43.679Z,450
2017-04-20T10:23:43.344Z,445
2017-04-20T10:24:43.651Z,450
2017-04-20T10:25:43.370Z,440
2017-04-20T10:26:43.633Z,420
2017-04-20T10:27:43.603Z,445
2017-04-20T10:28:43.602Z,435
2017-04-20T10:29:43.493Z,435
2017-04-20T10:30:42.946Z,430
2017-04-20T10:31:43.556Z,430
2017-04-20T10:32:43.540Z,420
2017-04-20T10:33:43.532Z,405
2017-04-20T10:34:43.197Z,410
2017-04-20T10:35:43.540Z,415
2017-04-20T10:36:42.893Z,410
2017-04-20T10:37:43.496Z,410
2017-04-20T10:38:43.857Z,405
2017-04-20T10:39:43.175Z,405
2017-04-20T10:40:43.452Z,400
2017-04-20T10:41:43.441Z,400
2017-04-20T10:42:43.424Z,400
2017-04-20T10:43:42.825Z,395
2017-04-20T10:44:43.425Z,400
2017-04-20T10:45:43.385Z,400
2017-04-20T10:46:43.553Z,390
2017-04-20T10:47:43.571Z,390
2017-04-20T10:48:43.379Z,390
2017-04-20T10:49:43.032Z,355
2017-04-20T10:50:43.334Z,360
2017-04-20T10:51:43.008Z,360
2017-04-20T10:52:43.307Z,385
2017-04-20T10:53:43.307Z,385
2017-04-20T10:54:43.263Z,380
2017-04-20T10:55:42.985Z,375
2017-04-20T10:56:42.944Z,380
2017-04-20T10:57:42.934Z,380
2017-04-20T10:58:42.923Z,365
2017-04-20T10:59:42.913Z,370
2017-04-20T11:00:42.899Z,360
2017-04-20T11:01:42.692Z,355
2017-04-20T11:02:42.553Z,355
2017-04-20T11:03:43.014Z,365
2017-04-20T11:04:43.256Z,365
2017-04-20T11:05:43.172Z,360
2017-04-20T11:06:42.853Z,355
2017-04-20T11:07:42.562Z,355
2017-04-20T11:08:43.141Z,350
2017-04-20T11:09:42.874Z,345
2017-04-20T11:10:42.783Z,360
2017-04-20T11:11:42.957Z,355
2017-04-20T11:12:43.062Z,355
2017-04-20T11:13:43.147Z,355
2017-04-20T11:14:43.062Z,360
2017-04-20T11:15:43.082Z,360
2017-04-20T11:16:43.006Z,355
2017-04-20T11:17:42.471Z,355
2017-04-20T11:18:42.685Z,360
2017-04-20T11:19:42.369Z,360
2017-04-20T11:20:42.849Z,355
2017-04-20T11:21:42.692Z,355
2017-04-20T11:22:42.010Z,360
2017-04-20T11:23:42.610Z,355
2017-04-20T11:24:42.600Z,355
2017-04-20T11:25:42.954Z,345
2017-04-20T11:26:42.601Z,350
2017-04-20T11:27:42.608Z,360
2017-04-20T11:28:42.263Z,355
2017-04-20T11:29:42.885Z,350
2017-04-20T11:30:42.810Z,350
2017-04-20T11:31:42.530Z,345
2017-04-20T11:32:41.914Z,345
2017-04-20T11:33:42.180Z,340
2017-04-20T11:34:42.853Z,345
2017-04-20T11:35:42.162Z,340
2017-04-20T11:36:41.888Z,345
2017-04-20T11:37:42.143Z,340
2017-04-20T11:38:41.805Z,350
2017-04-20T11:39:42.726Z,350
2017-04-20T11:40:42.404Z,345
2017-04-20T11:41:41.812Z,345
2017-04-20T11:42:42.691Z,345
2017-04-20T11:43:42.408Z,345
2017-04-20T11:44:42.344Z,340
2017-04-20T11:45:42.144Z,340
2017-04-20T11:46:42.048Z,340
2017-04-20T11:47:42.372Z,345
2017-04-20T11:48:42.283Z,340
2017-04-20T11:49:41.671Z,340
2017-04-20T11:50:42.592Z,340
2017-04-20T11:51:42.550Z,335
2017-04-20T11:52:41.928Z,335
2017-04-20T11:53:42.323Z,330
2017-04-20T11:54:42.362Z,335
2017-04-20T11:55:41.959Z,330
2017-04-20T11:56:42.493Z,330
2017-04-20T11:57:42.173Z,330
2017-04-20T11:58:42.462Z,335
2017-04-20T11:59:41.892Z,335
2017-04-20T12:00:42.142Z,330
2017-04-20T12:01:42.414Z,325
2017-04-20T12:02:41.485Z,325
2017-04-20T12:03:42.412Z,330
2017-04-20T12:04:41.472Z,335
2017-04-20T12:05:42.398Z,335
2017-04-20T12:06:41.741Z,330
2017-04-20T12:07:41.442Z,330
2017-04-20T12:08:42.338Z,330
2017-04-20T12:09:42.318Z,320
2017-04-20T12:10:41.402Z,320
2017-04-20T12:11:42.113Z,325
2017-04-20T12:12:41.673Z,320
2017-04-20T12:13:42.253Z,315
2017-04-20T12:14:42.355Z,320
2017-04-20T12:15:41.934Z,320
2017-04-20T12:16:42.314Z,325
2017-04-20T12:17:42.250Z,315
2017-04-20T12:18:42.116Z,315
2017-04-20T12:19:42.213Z,320
2017-04-20T12:20:42.289Z,315
2017-04-20T12:21:41.566Z,315
2017-04-20T12:22:41.603Z,315
2017-04-20T12:23:41.857Z,315
2017-04-20T12:24:42.131Z,315
2017-04-20T12:25:41.502Z,310
2017-04-20T12:26:42.352Z,310
2017-04-20T12:27:41.484Z,310
2017-04-20T12:28:42.122Z,305
2017-04-20T12:29:42.098Z,305
2017-04-20T12:30:42.131Z,305
2017-04-20T12:31:41.427Z,305
2017-04-20T12:32:41.732Z,305
2017-04-20T12:33:41.395Z,300
2017-04-20T12:34:41.800Z,300
2017-04-20T12:35:42.182Z,300
2017-04-20T12:36:41.671Z,295
2017-04-20T12:37:41.781Z,295
2017-04-20T12:38:41.693Z,295
2017-04-20T12:39:41.626Z,295
2017-04-20T12:40:41.412Z,300
2017-04-20T12:41:42.042Z,295
2017-04-20T12:42:41.288Z,295
2017-04-20T12:43:41.879Z,295
2017-04-20T12:44:41.255Z,295
2017-04-20T12:45:41.247Z,295
2017-04-20T12:46:41.561Z,295
2017-04-20T12:47:41.222Z,295
2017-04-20T12:48:41.527Z,295
2017-04-20T12:49:41.507Z,290
2017-04-20T12:50:41.200Z,285
2017-04-20T12:51:41.254Z,285
2017-04-20T12:52:40.857Z,290
2017-04-20T12:53:41.151Z,290
2017-04-20T12:54:41.132Z,290
2017-04-20T12:55:41.412Z,290
2017-04-20T12:56:41.731Z,290
2017-04-20T12:57:41.689Z,295
2017-04-20T12:58:41.081Z,290
2017-04-20T12:59:41.062Z,295
2017-04-20T13:00:41.064Z,290
2017-04-20T13:01:41.360Z,290
2017-04-20T13:02:41.368Z,290
2017-04-20T13:03:41.629Z,285
2017-04-20T13:04:41.299Z,285
2017-04-20T13:05:41.107Z,285
2017-04-20T13:06:41.572Z,285
2017-04-20T13:07:41.009Z,280
2017-04-20T13:08:41.256Z,280
2017-04-20T13:09:41.551Z,280
2017-04-20T13:10:41.242Z,280
2017-04-20T13:11:41.311Z,280
2017-04-20T13:12:40.592Z,285
2017-04-20T13:13:41.250Z,280
2017-04-20T13:14:41.177Z,280
2017-04-20T13:15:41.181Z,280
2017-04-20T13:16:41.152Z,250
2017-04-20T13:17:41.162Z,275
2017-04-20T13:18:41.113Z,275
2017-04-20T13:19:41.115Z,270
2017-04-20T13:20:40.815Z,270
2017-04-20T13:21:40.792Z,270
2017-04-20T13:22:41.091Z,270
2017-04-20T13:23:41.036Z,265
2017-04-20T13:24:41.553Z,260
2017-04-20T13:25:41.042Z,270
2017-04-20T13:26:41.335Z,265
2017-04-20T13:27:41.055Z,265
2017-04-20T13:28:41.020Z,270
2017-04-20T13:29:41.002Z,260
2017-04-20T13:30:41.071Z,260
2017-04-20T13:31:41.043Z,260
2017-04-20T13:32:40.938Z,260
2017-04-20T13:33:40.943Z,260
2017-04-20T13:34:41.315Z,260
2017-04-20T13:35:41.370Z,260
2017-04-20T13:36:40.924Z,260
2017-04-20T13:37:40.983Z,255
2017-04-20T13:38:40.866Z,255
2017-04-20T13:39:41.266Z,260
2017-04-20T13:40:41.221Z,255
2017-04-20T13:41:41.190Z,260
2017-04-20T13:42:41.145Z,260
2017-04-20T13:43:41.253Z,260
2017-04-20T13:44:41.095Z,260
2017-04-20T13:45:41.072Z,260
2017-04-20T13:46:40.739Z,260
2017-04-20T13:47:40.796Z,260
2017-04-20T13:48:40.721Z,260
2017-04-20T13:49:41.111Z,260
2017-04-20T13:50:40.994Z,255
2017-04-20T13:51:40.675Z,255
2017-04-20T13:52:40.991Z,260
2017-04-20T13:53:40.385Z,260
2017-04-20T13:54:40.711Z,250
2017-04-20T13:55:40.333Z,250
2017-04-20T13:56:40.611Z,250
2017-04-20T13:57:40.303Z,245
2017-04-20T13:58:40.592Z,245
2017-04-20T13:59:40.623Z,245
2017-04-20T14:00:40.569Z,245
2017-04-20T14:01:40.592Z,240
2017-04-20T14:02:40.940Z,240